createdAt,value
2023-05-08T00:02:10.066Z,51.10
2023-05-08T00:07:13.172Z,51.90
2023-05-08T00:12:16.185Z,56.21
2023-05-08T00:17:19.285Z,67.19
2023-05-08T00:22:22.495Z,69.93
2023-05-08T00:27:25.626Z,70.71
2023-05-08T00:32:29.291Z,69.71
2023-05-08T00:37:32.422Z,74.50
2023-05-08T00:42:35.320Z,72.51
2023-05-08T00:47:38.877Z,66.77
2023-05-08T00:52:41.900Z,65.06
2023-05-08T00:57:46.886Z,68.50
2023-05-08T01:02:50.266Z,71.84
2023-05-08T01:07:53.404Z,68.40
2023-05-08T01:13:11.906Z,71.11
2023-05-08T01:18:18.158Z,69.86
2023-05-08T01:23:39.696Z,72.83
2023-05-08T01:28:45.865Z,70.81
2023-05-08T01:33:57.038Z,74.88
2023-05-08T01:39:09.385Z,74.50
2023-05-08T01:44:24.574Z,70.69
2023-05-08T01:49:30.342Z,74.15
2023-05-08T01:54:36.622Z,76.85
2023-05-08T01:59:41.882Z,77.61
2023-05-08T02:04:45.082Z,80.77
2023-05-08T02:09:48.808Z,80.98
2023-05-08T02:14:53.555Z,80.21
2023-05-08T02:19:58.393Z,80.10
2023-05-08T02:25:01.501Z,80.89
2023-05-08T02:30:04.606Z,79.72
2023-05-08T02:35:08.582Z,80.01
2023-05-08T02:40:13.341Z,79.29
2023-05-08T02:45:17.004Z,79.81
2023-05-08T02:50:23.376Z,80.40
2023-05-08T02:55:46.551Z,82.23
2023-05-08T03:00:54.164Z,83.71
2023-05-08T03:05:58.289Z,84.03
2023-05-08T03:11:15.419Z,83.87
2023-05-08T03:16:21.321Z,83.75
2023-05-08T03:21:26.957Z,84.04
2023-05-08T03:26:30.283Z,84.49
2023-05-08T03:31:34.251Z,82.87
2023-05-08T03:36:37.400Z,80.87
2023-05-08T03:41:40.500Z,81.36
2023-05-08T03:46:45.025Z,82.35
2023-05-08T03:51:48.455Z,82.39
2023-05-08T03:56:54.668Z,81.62
2023-05-08T04:02:10.422Z,79.23
2023-05-08T04:07:19.400Z,71.43
2023-05-08T04:12:25.260Z,63.40
2023-05-08T04:17:35.065Z,58.14
2023-05-08T04:22:39.667Z,52.37
2023-05-08T04:27:44.016Z,45.10
2023-05-08T04:32:48.256Z,41.71
2023-05-08T04:37:51.541Z,38.80
2023-05-08T04:42:54.544Z,36.99
2023-05-08T04:47:57.607Z,35.87
2023-05-08T04:53:00.763Z,35.10
2023-05-08T04:58:03.862Z,35.98
2023-05-08T05:03:06.832Z,36.24
2023-05-08T05:08:09.871Z,33.82
2023-05-08T05:13:12.988Z,29.91
2023-05-08T05:18:16.188Z,29.16
2023-05-08T05:23:19.275Z,29.40
2023-05-08T05:28:22.281Z,28.13
2023-05-08T05:33:25.288Z,28.04
2023-05-08T05:38:28.187Z,27.69
2023-05-08T05:43:32.689Z,26.78
2023-05-08T05:48:36.139Z,29.09
2023-05-08T05:53:39.236Z,25.01
2023-05-08T05:58:45.212Z,23.62
2023-05-08T06:03:48.589Z,23.98
2023-05-08T06:08:51.935Z,23.35
2023-05-08T06:13:55.248Z,22.59
2023-05-08T06:18:58.361Z,23.33
2023-05-08T06:24:01.869Z,21.18
2023-05-08T06:29:04.872Z,21.56
2023-05-08T06:34:08.296Z,20.05
2023-05-08T06:39:11.305Z,19.89
2023-05-08T06:44:15.109Z,19.29
2023-05-08T06:49:18.122Z,18.06
2023-05-08T06:54:21.432Z,18.07
2023-05-08T06:59:24.636Z,17.62
2023-05-08T07:04:28.182Z,16.94
2023-05-08T07:09:32.177Z,17.83
2023-05-08T07:14:35.194Z,16.92
2023-05-08T07:19:38.743Z,15.29
2023-05-08T07:24:41.802Z,15.00
2023-05-08T07:29:44.805Z,15.42
2023-05-08T07:34:48.016Z,15.63
2023-05-08T07:39:51.844Z,14.52
2023-05-08T07:44:55.445Z,14.47
2023-05-08T07:49:58.564Z,13.81
2023-05-08T07:55:01.874Z,13.34
2023-05-08T08:00:08.949Z,14.04
2023-05-08T08:05:12.679Z,11.69
2023-05-08T08:10:15.989Z,12.77
2023-05-08T08:15:19.010Z,12.51
2023-05-08T08:20:22.540Z,12.33
2023-05-08T08:25:25.729Z,12.84
2023-05-08T08:30:28.943Z,12.46
2023-05-08T08:35:33.288Z,12.35
2023-05-08T08:40:40.666Z,12.19
2023-05-08T08:45:43.976Z,10.89
2023-05-08T08:50:49.143Z,11.21
2023-05-08T08:55:54.082Z,13.24
2023-05-08T09:00:58.619Z,14.23
2023-05-08T09:06:01.827Z,13.42
2023-05-08T09:11:05.145Z,12.64
2023-05-08T09:16:08.342Z,13.93
2023-05-08T09:21:11.860Z,15.40
2023-05-08T09:26:27.267Z,14.71
2023-05-08T09:31:37.082Z,14.43
2023-05-08T09:36:42.252Z,14.93
2023-05-08T09:41:57.465Z,15.75
2023-05-08T09:47:20.844Z,15.87
2023-05-08T09:52:24.459Z,16.66
2023-05-08T09:57:28.481Z,16.45
2023-05-08T10:02:31.848Z,17.64
2023-05-08T10:07:37.357Z,18.49
2023-05-08T10:12:41.815Z,19.01
2023-05-08T10:17:51.419Z,19.51
2023-05-08T10:22:57.122Z,19.88
2023-05-08T10:28:07.044Z,20.02
2023-05-08T10:33:11.240Z,20.68
2023-05-08T10:38:15.866Z,21.22
2023-05-08T10:43:19.581Z,21.21
2023-05-08T10:48:41.529Z,22.12
2023-05-08T10:53:49.673Z,22.39
2023-05-08T10:58:56.345Z,22.69
2023-05-08T11:03:59.497Z,22.94
2023-05-08T11:09:02.682Z,24.11
2023-05-08T11:14:08.932Z,23.41
2023-05-08T11:19:18.786Z,23.41
2023-05-08T11:24:32.855Z,22.92
2023-05-08T11:29:36.586Z,23.37
2023-05-08T11:34:42.971Z,23.57
2023-05-08T11:39:47.102Z,22.75
2023-05-08T11:44:50.805Z,22.27
2023-05-08T11:49:55.696Z,22.79
2023-05-08T11:55:01.535Z,23.03
2023-05-08T12:00:06.270Z,23.46
2023-05-08T12:05:09.952Z,22.60
2023-05-08T12:10:13.879Z,23.30
2023-05-08T12:15:17.437Z,23.25
2023-05-08T12:20:20.855Z,22.70
2023-05-08T12:25:26.102Z,22.44
2023-05-08T12:30:29.617Z,21.86
2023-05-08T12:35:33.132Z,23.05
2023-05-08T12:40:41.157Z,22.30
2023-05-08T12:45:44.193Z,22.93
2023-05-08T12:50:47.681Z,22.84
2023-05-08T12:55:53.090Z,22.91
2023-05-08T13:01:05.470Z,22.71
2023-05-08T13:06:19.206Z,22.78
2023-05-08T13:11:30.490Z,23.45
2023-05-08T13:16:42.077Z,23.00
2023-05-08T13:21:47.852Z,22.67
2023-05-08T13:26:50.875Z,23.14
2023-05-08T13:31:54.031Z,23.20
2023-05-08T13:36:58.734Z,22.73
2023-05-08T13:42:01.730Z,22.83
2023-05-08T13:47:04.836Z,22.73
2023-05-08T13:52:07.961Z,22.70
2023-05-08T13:57:11.558Z,23.12
2023-05-08T14:02:14.785Z,23.55
2023-05-08T14:07:18.812Z,22.54
2023-05-08T14:12:21.794Z,22.77
2023-05-08T14:17:25.036Z,23.16
2023-05-08T14:22:28.338Z,23.20
2023-05-08T14:27:31.327Z,23.79
2023-05-08T14:32:34.762Z,23.60
2023-05-08T14:37:37.941Z,23.56
2023-05-08T14:42:41.463Z,23.97
2023-05-08T14:47:44.710Z,23.97
2023-05-08T14:52:48.798Z,24.06
2023-05-08T14:57:51.905Z,24.17
2023-05-08T15:02:55.358Z,24.23
2023-05-08T15:07:58.422Z,24.23
2023-05-08T15:13:01.755Z,23.90
2023-05-08T15:18:05.340Z,24.03
2023-05-08T15:23:08.982Z,23.83
2023-05-08T15:28:11.970Z,23.76
2023-05-08T15:33:15.282Z,24.07
2023-05-08T15:38:18.294Z,24.13
2023-05-08T15:43:21.502Z,24.18
2023-05-08T15:48:24.717Z,24.53
2023-05-08T15:53:27.806Z,24.67
2023-05-08T15:58:30.813Z,24.38
2023-05-08T16:03:34.389Z,23.97
2023-05-08T16:08:37.947Z,24.13
2023-05-08T16:13:40.946Z,24.02
2023-05-08T16:18:44.364Z,24.07
2023-05-08T16:23:47.801Z,24.35
2023-05-08T16:28:51.389Z,24.54
2023-05-08T16:33:54.495Z,24.00
2023-05-08T16:38:57.706Z,24.44
2023-05-08T16:44:01.019Z,24.45
2023-05-08T16:49:04.120Z,24.76
2023-05-08T16:54:07.232Z,24.88
2023-05-08T16:59:10.341Z,24.77
2023-05-08T17:04:13.533Z,24.71
2023-05-08T17:09:18.592Z,24.57
2023-05-08T17:14:21.808Z,24.88
2023-05-08T17:19:25.623Z,24.92
2023-05-08T17:24:29.977Z,25.43
2023-05-08T17:29:33.686Z,26.27
2023-05-08T17:34:37.738Z,26.64
2023-05-08T17:39:40.909Z,26.93
2023-05-08T17:44:44.046Z,27.38
2023-05-08T17:49:47.287Z,27.77
2023-05-08T17:54:51.377Z,27.38
2023-05-08T17:59:54.457Z,28.07
2023-05-08T18:04:58.291Z,28.34
2023-05-08T18:10:01.381Z,29.62
2023-05-08T18:15:05.653Z,31.72
2023-05-08T18:20:09.670Z,31.63
2023-05-08T18:25:13.379Z,32.69
2023-05-08T18:30:17.396Z,32.77
2023-05-08T18:35:21.952Z,33.98
2023-05-08T18:40:25.358Z,33.05
2023-05-08T18:45:29.066Z,33.83
2023-05-08T18:50:32.270Z,33.83
2023-05-08T18:55:36.001Z,37.98
2023-05-08T19:00:39.039Z,39.52
2023-05-08T19:05:42.227Z,38.92
2023-05-08T19:10:46.143Z,40.02
2023-05-08T19:15:50.310Z,38.36
2023-05-08T19:20:54.280Z,35.55
2023-05-08T19:25:57.330Z,36.63
2023-05-08T19:31:00.906Z,37.39
2023-05-08T19:36:04.215Z,38.89
2023-05-08T19:41:08.039Z,38.19
2023-05-08T19:46:10.998Z,40.42
2023-05-08T19:51:16.620Z,47.69
2023-05-08T19:56:19.714Z,48.04
2023-05-08T20:01:22.972Z,47.10
2023-05-08T20:06:26.604Z,47.03
2023-05-08T20:11:30.059Z,47.32
2023-05-08T20:16:34.026Z,47.17
2023-05-08T20:21:37.178Z,46.95
2023-05-08T20:26:41.747Z,47.57
2023-05-08T20:31:44.788Z,47.62
2023-05-08T20:36:48.038Z,47.71
2023-05-08T20:41:52.228Z,47.47
2023-05-08T20:46:57.058Z,48.75
2023-05-08T20:52:01.536Z,48.26
2023-05-08T20:57:05.198Z,46.62
2023-05-08T21:02:08.736Z,44.21
2023-05-08T21:07:11.924Z,43.59
2023-05-08T21:12:15.236Z,43.52
2023-05-08T21:17:18.551Z,42.55
2023-05-08T21:22:22.270Z,46.58
2023-05-08T21:27:27.324Z,53.65
2023-05-08T21:32:30.452Z,53.62
2023-05-08T21:37:33.652Z,51.50
2023-05-08T21:42:37.166Z,49.14
2023-05-08T21:47:40.698Z,46.87
2023-05-08T21:52:45.523Z,46.01
2023-05-08T21:57:48.738Z,45.57
2023-05-08T22:02:52.151Z,46.72
2023-05-08T22:07:55.457Z,49.56
2023-05-08T22:12:58.615Z,49.85
2023-05-08T22:18:03.127Z,51.88
2023-05-08T22:23:07.242Z,50.44
2023-05-08T22:28:10.953Z,50.72
2023-05-08T22:33:14.163Z,50.50
2023-05-08T22:38:17.372Z,50.70
2023-05-08T22:43:20.475Z,50.39
2023-05-08T22:48:23.371Z,50.89
2023-05-08T22:53:26.374Z,49.46
2023-05-08T22:58:29.476Z,50.49
2023-05-08T23:03:32.483Z,57.56
2023-05-08T23:08:35.397Z,56.13
2023-05-08T23:13:38.282Z,55.32
2023-05-08T23:18:41.488Z,52.29
2023-05-08T23:23:44.695Z,60.30
2023-05-08T23:28:47.601Z,69.35
2023-05-08T23:33:50.599Z,66.40
2023-05-08T23:38:53.910Z,61.97
2023-05-08T23:43:57.324Z,60.32
2023-05-08T23:49:00.332Z,56.90
2023-05-08T23:54:03.552Z,55.80
2023-05-08T23:59:06.853Z,54.71
